sensor_id;sensor_type;location;lat;lon;timestamp;noise_LAeq;noise_LA_min;noise_LA_max;noise_LA01;noise_LA95
72466;Laerm;60471;52.150;4.508;2023-12-20T00:01:44;71.01;41.94;89.00;;
72466;Laerm;60471;52.150;4.508;2023-12-20T00:04:10;71.12;41.96;89.03;;
72466;Laerm;60471;52.150;4.508;2023-12-20T00:06:36;70.70;41.56;89.34;;
72466;Laerm;60471;52.150;4.508;2023-12-20T00:09:02;71.06;40.29;89.62;;
72466;Laerm;60471;52.150;4.508;2023-12-20T00:11:29;70.82;40.79;90.52;;
72466;Laerm;60471;52.150;4.508;2023-12-20T00:13:55;71.36;40.51;90.16;;
72466;Laerm;60471;52.150;4.508;2023-12-20T00:16:21;70.63;40.19;87.36;;
72466;Laerm;60471;52.150;4.508;2023-12-20T00:18:47;70.79;41.42;89.31;;
72466;Laerm;60471;52.150;4.508;2023-12-20T00:21:13;71.21;40.33;90.61;;
72466;Laerm;60471;52.150;4.508;2023-12-20T00:23:40;70.57;40.93;88.43;;
72466;Laerm;60471;52.150;4.508;2023-12-20T00:26:06;70.74;40.99;88.93;;
72466;Laerm;60471;52.150;4.508;2023-12-20T00:28:32;70.85;40.32;89.28;;
72466;Laerm;60471;52.150;4.508;2023-12-20T00:30:58;71.44;41.22;90.10;;
72466;Laerm;60471;52.150;4.508;2023-12-20T00:33:24;70.85;40.63;89.99;;
72466;Laerm;60471;52.150;4.508;2023-12-20T00:35:51;70.61;41.33;88.60;;
72466;Laerm;60471;52.150;4.508;2023-12-20T00:38:17;70.66;41.24;89.26;;
72466;Laerm;60471;52.150;4.508;2023-12-20T00:40:43;71.10;41.14;89.21;;
72466;Laerm;60471;52.150;4.508;2023-12-20T00:43:09;71.06;40.12;89.23;;
72466;Laerm;60471;52.150;4.508;2023-12-20T00:45:35;70.33;40.43;89.63;;
72466;Laerm;60471;52.150;4.508;2023-12-20T00:48:02;70.73;41.62;91.17;;
72466;Laerm;60471;52.150;4.508;2023-12-20T00:50:29;70.52;40.89;89.95;;
72466;Laerm;60471;52.150;4.508;2023-12-20T00:52:55;71.06;40.38;89.32;;
72466;Laerm;60471;52.150;4.508;2023-12-20T00:55:22;70.96;40.24;89.51;;
72466;Laerm;60471;52.150;4.508;2023-12-20T00:57:48;70.73;40.35;88.85;;
72466;Laerm;60471;52.150;4.508;2023-12-20T01:00:14;70.76;41.66;89.06;;
72466;Laerm;60471;52.150;4.508;2023-12-20T01:02:41;70.76;42.38;89.23;;
72466;Laerm;60471;52.150;4.508;2023-12-20T01:05:07;71.14;40.78;89.48;;
72466;Laerm;60471;52.150;4.508;2023-12-20T01:07:35;70.62;40.77;89.77;;
72466;Laerm;60471;52.150;4.508;2023-12-20T01:10:02;70.95;40.06;89.15;;
72466;Laerm;60471;52.150;4.508;2023-12-20T01:12:28;70.38;40.91;89.61;;
72466;Laerm;60471;52.150;4.508;2023-12-20T01:14:54;70.84;41.10;89.20;;
72466;Laerm;60471;52.150;4.508;2023-12-20T01:17:20;70.99;40.60;88.25;;
72466;Laerm;60471;52.150;4.508;2023-12-20T01:19:47;70.73;41.30;89.29;;
72466;Laerm;60471;52.150;4.508;2023-12-20T01:22:13;70.81;39.93;89.39;;
72466;Laerm;60471;52.150;4.508;2023-12-20T01:24:39;70.92;41.58;89.95;;
72466;Laerm;60471;52.150;4.508;2023-12-20T01:27:05;70.34;41.32;89.66;;
72466;Laerm;60471;52.150;4.508;2023-12-20T01:29:31;71.05;39.87;89.53;;
72466;Laerm;60471;52.150;4.508;2023-12-20T01:31:57;70.69;38.42;89.86;;
72466;Laerm;60471;52.150;4.508;2023-12-20T01:34:24;70.82;40.12;88.94;;
72466;Laerm;60471;52.150;4.508;2023-12-20T01:36:50;70.73;41.38;89.77;;
72466;Laerm;60471;52.150;4.508;2023-12-20T01:39:17;70.89;41.58;88.80;;
72466;Laerm;60471;52.150;4.508;2023-12-20T01:41:44;70.64;41.94;89.21;;
72466;Laerm;60471;52.150;4.508;2023-12-20T01:44:11;70.96;40.29;88.97;;
72466;Laerm;60471;52.150;4.508;2023-12-20T01:46:38;70.52;41.67;89.70;;
72466;Laerm;60471;52.150;4.508;2023-12-20T01:49:04;70.72;39.79;90.29;;
72466;Laerm;60471;52.150;4.508;2023-12-20T01:51:31;70.62;41.79;89.12;;
72466;Laerm;60471;52.150;4.508;2023-12-20T01:53:58;70.58;41.89;89.17;;
72466;Laerm;60471;52.150;4.508;2023-12-20T01:56:28;70.83;41.28;89.41;;
72466;Laerm;60471;52.150;4.508;2023-12-20T01:58:56;70.94;43.05;88.91;;
72466;Laerm;60471;52.150;4.508;2023-12-20T02:01:22;70.39;43.09;89.05;;
72466;Laerm;60471;52.150;4.508;2023-12-20T02:03:49;70.95;41.78;89.25;;
72466;Laerm;60471;52.150;4.508;2023-12-20T02:06:18;70.46;41.92;88.65;;
72466;Laerm;60471;52.150;4.508;2023-12-20T02:08:45;70.58;41.40;89.03;;
72466;Laerm;60471;52.150;4.508;2023-12-20T02:11:11;70.90;41.90;89.51;;
72466;Laerm;60471;52.150;4.508;2023-12-20T02:13:37;70.67;40.88;89.25;;
72466;Laerm;60471;52.150;4.508;2023-12-20T02:16:04;70.48;43.35;88.78;;
72466;Laerm;60471;52.150;4.508;2023-12-20T02:18:30;70.79;43.00;89.08;;
72466;Laerm;60471;52.150;4.508;2023-12-20T02:20:56;70.71;41.71;89.36;;
72466;Laerm;60471;52.150;4.508;2023-12-20T02:23:22;70.57;42.02;88.81;;
72466;Laerm;60471;52.150;4.508;2023-12-20T02:25:49;70.73;42.14;89.69;;
72466;Laerm;60471;52.150;4.508;2023-12-20T02:28:15;70.87;42.74;90.55;;
72466;Laerm;60471;52.150;4.508;2023-12-20T02:30:42;70.78;42.14;88.88;;
72466;Laerm;60471;52.150;4.508;2023-12-20T02:33:11;70.63;41.95;89.41;;
72466;Laerm;60471;52.150;4.508;2023-12-20T02:35:38;71.05;41.64;88.70;;
72466;Laerm;60471;52.150;4.508;2023-12-20T02:38:04;70.58;42.82;89.43;;
72466;Laerm;60471;52.150;4.508;2023-12-20T02:40:30;71.20;42.54;89.60;;
72466;Laerm;60471;52.150;4.508;2023-12-20T02:42:57;71.03;42.12;89.78;;
72466;Laerm;60471;52.150;4.508;2023-12-20T02:45:23;70.98;43.59;90.21;;
72466;Laerm;60471;52.150;4.508;2023-12-20T02:47:49;70.93;41.94;89.41;;
72466;Laerm;60471;52.150;4.508;2023-12-20T02:50:15;70.82;42.21;89.24;;
72466;Laerm;60471;52.150;4.508;2023-12-20T02:52:45;70.71;42.10;89.69;;
72466;Laerm;60471;52.150;4.508;2023-12-20T02:55:12;70.76;42.17;89.23;;
72466;Laerm;60471;52.150;4.508;2023-12-20T02:57:39;70.52;43.66;89.43;;
72466;Laerm;60471;52.150;4.508;2023-12-20T03:00:09;71.18;43.14;90.23;;
72466;Laerm;60471;52.150;4.508;2023-12-20T03:02:36;70.78;44.58;89.11;;
72466;Laerm;60471;52.150;4.508;2023-12-20T03:05:03;70.77;43.95;89.17;;
72466;Laerm;60471;52.150;4.508;2023-12-20T03:07:29;70.73;44.40;88.85;;
72466;Laerm;60471;52.150;4.508;2023-12-20T03:09:55;70.92;43.33;90.16;;
72466;Laerm;60471;52.150;4.508;2023-12-20T03:12:21;70.85;42.96;89.59;;
72466;Laerm;60471;52.150;4.508;2023-12-20T03:14:48;70.94;44.58;89.74;;
72466;Laerm;60471;52.150;4.508;2023-12-20T03:17:15;70.80;44.18;89.82;;
72466;Laerm;60471;52.150;4.508;2023-12-20T03:19:41;71.01;44.78;89.78;;
72466;Laerm;60471;52.150;4.508;2023-12-20T03:22:07;70.62;42.37;88.13;;
72466;Laerm;60471;52.150;4.508;2023-12-20T03:24:33;70.59;43.06;88.51;;
72466;Laerm;60471;52.150;4.508;2023-12-20T03:27:00;70.95;43.38;89.26;;
72466;Laerm;60471;52.150;4.508;2023-12-20T03:29:26;70.83;45.00;90.22;;
72466;Laerm;60471;52.150;4.508;2023-12-20T03:31:52;70.62;44.62;87.89;;
72466;Laerm;60471;52.150;4.508;2023-12-20T03:34:18;70.65;43.56;87.95;;
72466;Laerm;60471;52.150;4.508;2023-12-20T03:36:44;71.01;43.82;89.28;;
72466;Laerm;60471;52.150;4.508;2023-12-20T03:39:13;70.70;44.60;88.49;;
72466;Laerm;60471;52.150;4.508;2023-12-20T03:41:39;70.91;45.24;89.67;;
72466;Laerm;60471;52.150;4.508;2023-12-20T03:44:06;70.91;43.90;88.83;;
72466;Laerm;60471;52.150;4.508;2023-12-20T03:46:32;70.95;44.08;90.43;;
72466;Laerm;60471;52.150;4.508;2023-12-20T03:48:58;70.79;44.36;91.49;;
72466;Laerm;60471;52.150;4.508;2023-12-20T03:51:24;70.90;45.13;89.58;;
72466;Laerm;60471;52.150;4.508;2023-12-20T03:53:50;71.03;45.42;89.31;;
72466;Laerm;60471;52.150;4.508;2023-12-20T03:56:17;70.73;44.84;88.58;;
72466;Laerm;60471;52.150;4.508;2023-12-20T03:58:43;70.57;44.36;89.73;;
72466;Laerm;60471;52.150;4.508;2023-12-20T04:01:10;70.99;45.17;88.85;;
72466;Laerm;60471;52.150;4.508;2023-12-20T04:03:39;71.05;45.84;89.36;;
72466;Laerm;60471;52.150;4.508;2023-12-20T04:06:06;70.82;44.91;88.89;;
72466;Laerm;60471;52.150;4.508;2023-12-20T04:08:32;70.80;46.03;88.76;;
72466;Laerm;60471;52.150;4.508;2023-12-20T04:10:58;71.16;46.45;89.05;;
72466;Laerm;60471;52.150;4.508;2023-12-20T04:13:25;71.11;46.17;88.99;;
72466;Laerm;60471;52.150;4.508;2023-12-20T04:15:51;70.84;45.50;90.36;;
72466;Laerm;60471;52.150;4.508;2023-12-20T04:18:18;71.42;46.54;90.32;;
72466;Laerm;60471;52.150;4.508;2023-12-20T04:20:44;71.22;47.74;89.37;;
72466;Laerm;60471;52.150;4.508;2023-12-20T04:23:10;70.97;47.02;90.43;;
72466;Laerm;60471;52.150;4.508;2023-12-20T04:25:36;71.30;47.31;89.26;;
72466;Laerm;60471;52.150;4.508;2023-12-20T04:28:03;71.04;48.96;89.18;;
72466;Laerm;60471;52.150;4.508;2023-12-20T04:30:29;71.26;47.36;90.07;;
72466;Laerm;60471;52.150;4.508;2023-12-20T04:32:55;71.04;48.21;91.06;;
72466;Laerm;60471;52.150;4.508;2023-12-20T04:35:22;71.25;49.80;89.72;;
72466;Laerm;60471;52.150;4.508;2023-12-20T04:37:49;70.96;48.65;89.64;;
72466;Laerm;60471;52.150;4.508;2023-12-20T04:40:15;71.13;49.44;90.51;;
72466;Laerm;60471;52.150;4.508;2023-12-20T04:42:41;71.37;49.32;90.23;;
72466;Laerm;60471;52.150;4.508;2023-12-20T04:45:08;71.23;48.27;89.48;;
72466;Laerm;60471;52.150;4.508;2023-12-20T04:47:34;71.33;48.66;89.25;;
72466;Laerm;60471;52.150;4.508;2023-12-20T04:50:01;71.26;48.14;89.55;;
72466;Laerm;60471;52.150;4.508;2023-12-20T04:52:28;71.21;48.70;90.67;;
72466;Laerm;60471;52.150;4.508;2023-12-20T04:54:54;70.76;48.61;89.88;;
72466;Laerm;60471;52.150;4.508;2023-12-20T04:57:21;71.07;49.60;89.79;;
72466;Laerm;60471;52.150;4.508;2023-12-20T04:59:47;71.06;49.25;90.33;;
72466;Laerm;60471;52.150;4.508;2023-12-20T05:02:14;71.19;48.64;89.81;;
72466;Laerm;60471;52.150;4.508;2023-12-20T05:04:40;71.06;49.73;89.35;;
72466;Laerm;60471;52.150;4.508;2023-12-20T05:07:07;71.31;49.09;90.07;;
72466;Laerm;60471;52.150;4.508;2023-12-20T05:09:33;71.20;49.69;89.38;;
72466;Laerm;60471;52.150;4.508;2023-12-20T05:11:59;70.89;49.35;89.35;;
72466;Laerm;60471;52.150;4.508;2023-12-20T05:14:26;70.80;49.94;90.43;;
72466;Laerm;60471;52.150;4.508;2023-12-20T05:16:52;71.13;49.81;90.41;;
72466;Laerm;60471;52.150;4.508;2023-12-20T05:19:18;71.25;50.36;89.79;;
72466;Laerm;60471;52.150;4.508;2023-12-20T05:21:45;71.03;50.09;89.66;;
72466;Laerm;60471;52.150;4.508;2023-12-20T05:24:11;71.12;50.74;90.13;;
72466;Laerm;60471;52.150;4.508;2023-12-20T05:26:37;71.83;51.95;90.62;;
72466;Laerm;60471;52.150;4.508;2023-12-20T05:29:03;71.31;51.16;88.90;;
72466;Laerm;60471;52.150;4.508;2023-12-20T05:31:31;71.26;51.12;90.01;;
72466;Laerm;60471;52.150;4.508;2023-12-20T05:33:57;71.38;51.64;90.00;;
72466;Laerm;60471;52.150;4.508;2023-12-20T05:36:24;71.63;50.80;89.31;;
72466;Laerm;60471;52.150;4.508;2023-12-20T05:38:50;71.26;53.20;90.34;;
72466;Laerm;60471;52.150;4.508;2023-12-20T05:41:17;71.29;51.16;89.73;;
72466;Laerm;60471;52.150;4.508;2023-12-20T05:43:43;70.88;50.80;89.92;;
72466;Laerm;60471;52.150;4.508;2023-12-20T05:46:12;71.02;51.43;90.73;;
72466;Laerm;60471;52.150;4.508;2023-12-20T05:48:39;71.00;50.88;89.26;;
72466;Laerm;60471;52.150;4.508;2023-12-20T05:51:05;71.20;52.29;89.88;;
72466;Laerm;60471;52.150;4.508;2023-12-20T05:53:31;71.18;52.75;88.95;;
72466;Laerm;60471;52.150;4.508;2023-12-20T05:55:57;71.53;52.89;90.27;;
72466;Laerm;60471;52.150;4.508;2023-12-20T05:58:24;71.22;50.79;91.21;;
72466;Laerm;60471;52.150;4.508;2023-12-20T06:00:50;70.90;50.44;88.98;;
72466;Laerm;60471;52.150;4.508;2023-12-20T06:03:16;71.06;51.45;90.30;;
72466;Laerm;60471;52.150;4.508;2023-12-20T06:05:42;71.17;52.71;89.26;;
72466;Laerm;60471;52.150;4.508;2023-12-20T06:08:08;70.91;50.48;89.32;;
72466;Laerm;60471;52.150;4.508;2023-12-20T06:10:35;71.11;51.72;89.12;;
72466;Laerm;60471;52.150;4.508;2023-12-20T06:13:01;71.14;51.48;89.20;;
72466;Laerm;60471;52.150;4.508;2023-12-20T06:15:27;71.06;51.25;89.35;;
72466;Laerm;60471;52.150;4.508;2023-12-20T06:17:53;71.01;52.14;89.14;;
72466;Laerm;60471;52.150;4.508;2023-12-20T06:20:20;70.99;52.48;89.57;;
72466;Laerm;60471;52.150;4.508;2023-12-20T06:22:46;71.49;51.97;90.45;;
72466;Laerm;60471;52.150;4.508;2023-12-20T06:25:12;71.08;50.38;89.66;;
72466;Laerm;60471;52.150;4.508;2023-12-20T06:27:38;71.46;53.39;89.31;;
72466;Laerm;60471;52.150;4.508;2023-12-20T06:30:05;71.37;51.64;90.34;;
72466;Laerm;60471;52.150;4.508;2023-12-20T06:32:32;71.13;51.55;89.80;;
72466;Laerm;60471;52.150;4.508;2023-12-20T06:34:58;71.01;52.74;88.38;;
72466;Laerm;60471;52.150;4.508;2023-12-20T06:37:24;71.55;52.31;91.43;;
72466;Laerm;60471;52.150;4.508;2023-12-20T06:39:50;71.13;52.13;89.82;;
72466;Laerm;60471;52.150;4.508;2023-12-20T06:42:16;71.00;52.60;88.74;;
72466;Laerm;60471;52.150;4.508;2023-12-20T06:44:43;71.28;52.55;89.08;;
72466;Laerm;60471;52.150;4.508;2023-12-20T06:47:09;71.41;53.11;89.68;;
72466;Laerm;60471;52.150;4.508;2023-12-20T06:49:35;70.85;51.67;90.49;;
72466;Laerm;60471;52.150;4.508;2023-12-20T06:52:01;71.14;52.11;90.76;;
72466;Laerm;60471;52.150;4.508;2023-12-20T06:54:28;70.85;52.34;88.54;;
72466;Laerm;60471;52.150;4.508;2023-12-20T06:56:54;71.32;52.27;89.04;;
72466;Laerm;60471;52.150;4.508;2023-12-20T06:59:20;71.29;55.05;90.22;;
72466;Laerm;60471;52.150;4.508;2023-12-20T07:01:49;70.73;51.30;90.19;;
72466;Laerm;60471;52.150;4.508;2023-12-20T07:04:16;70.82;51.60;89.29;;
72466;Laerm;60471;52.150;4.508;2023-12-20T07:06:46;70.99;51.68;89.63;;
72466;Laerm;60471;52.150;4.508;2023-12-20T07:09:13;70.86;52.16;89.30;;
72466;Laerm;60471;52.150;4.508;2023-12-20T07:11:39;71.11;54.34;88.80;;
72466;Laerm;60471;52.150;4.508;2023-12-20T07:14:06;71.42;53.43;90.72;;
72466;Laerm;60471;52.150;4.508;2023-12-20T07:16:32;71.27;54.94;91.12;;
72466;Laerm;60471;52.150;4.508;2023-12-20T07:18:58;71.23;55.55;89.43;;
72466;Laerm;60471;52.150;4.508;2023-12-20T07:21:24;71.35;55.44;88.85;;
72466;Laerm;60471;52.150;4.508;2023-12-20T07:23:51;71.68;53.85;88.99;;
72466;Laerm;60471;52.150;4.508;2023-12-20T07:26:17;71.53;54.70;89.82;;
72466;Laerm;60471;52.150;4.508;2023-12-20T07:28:43;71.60;55.79;89.51;;
72466;Laerm;60471;52.150;4.508;2023-12-20T07:31:10;71.34;54.22;89.72;;
72466;Laerm;60471;52.150;4.508;2023-12-20T07:33:36;71.56;54.35;90.33;;
72466;Laerm;60471;52.150;4.508;2023-12-20T07:36:02;71.32;55.19;90.52;;
72466;Laerm;60471;52.150;4.508;2023-12-20T07:38:29;71.17;55.25;89.57;;
72466;Laerm;60471;52.150;4.508;2023-12-20T07:40:55;71.52;54.48;89.63;;
72466;Laerm;60471;52.150;4.508;2023-12-20T07:43:21;71.28;55.51;90.06;;
72466;Laerm;60471;52.150;4.508;2023-12-20T07:45:47;71.49;55.01;91.45;;
72466;Laerm;60471;52.150;4.508;2023-12-20T07:48:13;71.76;54.97;90.13;;
72466;Laerm;60471;52.150;4.508;2023-12-20T07:50:40;71.61;55.81;89.70;;
72466;Laerm;60471;52.150;4.508;2023-12-20T07:53:06;71.57;56.62;89.88;;
72466;Laerm;60471;52.150;4.508;2023-12-20T07:55:32;70.96;53.96;89.29;;
72466;Laerm;60471;52.150;4.508;2023-12-20T07:57:59;71.19;54.73;89.88;;
72466;Laerm;60471;52.150;4.508;2023-12-20T08:00:25;71.48;54.55;89.33;;
72466;Laerm;60471;52.150;4.508;2023-12-20T08:02:51;71.15;53.67;89.21;;
72466;Laerm;60471;52.150;4.508;2023-12-20T08:05:17;71.18;53.16;89.41;;
72466;Laerm;60471;52.150;4.508;2023-12-20T08:07:44;71.27;54.85;89.65;;
72466;Laerm;60471;52.150;4.508;2023-12-20T08:10:10;71.49;52.74;89.75;;
72466;Laerm;60471;52.150;4.508;2023-12-20T08:12:37;71.70;54.29;89.92;;
72466;Laerm;60471;52.150;4.508;2023-12-20T08:15:04;71.04;55.00;90.24;;
72466;Laerm;60471;52.150;4.508;2023-12-20T08:17:30;71.30;54.68;89.67;;
72466;Laerm;60471;52.150;4.508;2023-12-20T08:19:56;70.76;52.77;89.84;;
72466;Laerm;60471;52.150;4.508;2023-12-20T08:22:23;70.98;53.19;89.77;;
72466;Laerm;60471;52.150;4.508;2023-12-20T08:24:49;71.02;50.95;89.06;;
72466;Laerm;60471;52.150;4.508;2023-12-20T08:27:15;70.88;51.30;91.03;;
72466;Laerm;60471;52.150;4.508;2023-12-20T08:29:44;70.93;52.48;89.64;;
72466;Laerm;60471;52.150;4.508;2023-12-20T08:32:11;71.28;54.67;90.78;;
72466;Laerm;60471;52.150;4.508;2023-12-20T08:34:37;71.14;53.80;91.08;;
72466;Laerm;60471;52.150;4.508;2023-12-20T08:37:04;71.10;52.06;88.99;;
72466;Laerm;60471;52.150;4.508;2023-12-20T08:39:30;71.10;52.61;88.96;;
72466;Laerm;60471;52.150;4.508;2023-12-20T08:41:56;71.32;55.49;89.35;;
72466;Laerm;60471;52.150;4.508;2023-12-20T08:44:22;70.83;52.92;90.79;;
72466;Laerm;60471;52.150;4.508;2023-12-20T08:46:49;70.85;52.07;90.19;;
72466;Laerm;60471;52.150;4.508;2023-12-20T08:49:15;71.51;54.11;90.62;;
72466;Laerm;60471;52.150;4.508;2023-12-20T08:51:41;71.63;54.21;90.85;;
72466;Laerm;60471;52.150;4.508;2023-12-20T08:54:09;71.58;53.92;90.59;;
72466;Laerm;60471;52.150;4.508;2023-12-20T08:56:35;71.07;53.90;89.55;;
72466;Laerm;60471;52.150;4.508;2023-12-20T08:59:01;71.26;52.66;89.53;;
72466;Laerm;60471;52.150;4.508;2023-12-20T09:01:27;71.53;52.36;90.28;;
72466;Laerm;60471;52.150;4.508;2023-12-20T09:03:54;71.07;51.71;90.41;;
72466;Laerm;60471;52.150;4.508;2023-12-20T09:06:20;71.31;52.44;91.33;;
72466;Laerm;60471;52.150;4.508;2023-12-20T09:08:46;71.20;53.33;90.81;;
72466;Laerm;60471;52.150;4.508;2023-12-20T09:11:12;71.09;52.71;90.37;;
72466;Laerm;60471;52.150;4.508;2023-12-20T09:13:38;71.65;53.32;90.47;;
72466;Laerm;60471;52.150;4.508;2023-12-20T09:16:05;70.83;51.84;89.98;;
72466;Laerm;60471;52.150;4.508;2023-12-20T09:18:31;70.63;51.20;89.92;;
72466;Laerm;60471;52.150;4.508;2023-12-20T09:20:58;70.94;52.44;90.65;;
72466;Laerm;60471;52.150;4.508;2023-12-20T09:23:24;70.90;52.36;89.15;;
72466;Laerm;60471;52.150;4.508;2023-12-20T09:25:50;71.03;53.44;89.46;;
72466;Laerm;60471;52.150;4.508;2023-12-20T09:28:16;70.75;51.35;89.30;;
72466;Laerm;60471;52.150;4.508;2023-12-20T09:30:42;70.81;51.99;90.04;;
72466;Laerm;60471;52.150;4.508;2023-12-20T09:33:10;70.85;52.79;89.78;;
72466;Laerm;60471;52.150;4.508;2023-12-20T09:35:37;70.56;51.63;89.12;;
72466;Laerm;60471;52.150;4.508;2023-12-20T09:38:03;70.92;52.96;90.10;;
72466;Laerm;60471;52.150;4.508;2023-12-20T09:40:32;70.86;53.91;90.05;;
72466;Laerm;60471;52.150;4.508;2023-12-20T09:43:04;70.75;53.79;89.68;;
72466;Laerm;60471;52.150;4.508;2023-12-20T09:45:35;70.65;54.97;89.43;;
72466;Laerm;60471;52.150;4.508;2023-12-20T09:48:01;70.45;55.49;88.66;;
72466;Laerm;60471;52.150;4.508;2023-12-20T09:50:30;70.45;54.51;88.58;;
72466;Laerm;60471;52.150;4.508;2023-12-20T09:53:01;69.99;53.54;90.02;;
72466;Laerm;60471;52.150;4.508;2023-12-20T09:55:30;70.31;54.88;89.18;;
72466;Laerm;60471;52.150;4.508;2023-12-20T09:57:59;70.05;53.73;89.53;;
72466;Laerm;60471;52.150;4.508;2023-12-20T10:00:26;70.36;55.06;89.12;;
72466;Laerm;60471;52.150;4.508;2023-12-20T10:02:59;70.25;55.86;90.02;;
72466;Laerm;60471;52.150;4.508;2023-12-20T10:05:32;70.38;54.11;90.55;;
72466;Laerm;60471;52.150;4.508;2023-12-20T10:08:00;70.44;54.34;90.52;;
72466;Laerm;60471;52.150;4.508;2023-12-20T10:10:27;70.47;53.74;90.73;;
72466;Laerm;60471;52.150;4.508;2023-12-20T10:13:09;69.91;53.28;89.58;;
72466;Laerm;60471;52.150;4.508;2023-12-20T10:15:37;70.33;52.70;89.36;;
72466;Laerm;60471;52.150;4.508;2023-12-20T10:18:04;70.19;51.47;89.17;;
72466;Laerm;60471;52.150;4.508;2023-12-20T10:20:31;70.52;53.84;89.66;;
72466;Laerm;60471;52.150;4.508;2023-12-20T10:22:59;70.44;55.99;90.40;;
72466;Laerm;60471;52.150;4.508;2023-12-20T10:25:26;70.12;53.81;89.20;;
72466;Laerm;60471;52.150;4.508;2023-12-20T10:28:15;69.56;50.77;89.28;;
72466;Laerm;60471;52.150;4.508;2023-12-20T10:30:47;69.63;51.63;88.57;;
72466;Laerm;60471;52.150;4.508;2023-12-20T10:33:13;70.33;52.58;88.83;;
72466;Laerm;60471;52.150;4.508;2023-12-20T10:35:40;69.87;54.04;89.78;;
72466;Laerm;60471;52.150;4.508;2023-12-20T10:38:07;69.81;51.24;90.70;;
72466;Laerm;60471;52.150;4.508;2023-12-20T10:40:35;69.79;51.05;90.27;;
72466;Laerm;60471;52.150;4.508;2023-12-20T10:43:05;69.70;52.66;90.54;;
72466;Laerm;60471;52.150;4.508;2023-12-20T10:45:31;70.01;51.59;90.02;;
72466;Laerm;60471;52.150;4.508;2023-12-20T10:47:58;69.90;52.42;90.02;;
72466;Laerm;60471;52.150;4.508;2023-12-20T10:50:27;69.14;52.21;87.78;;
72466;Laerm;60471;52.150;4.508;2023-12-20T10:52:58;68.43;52.47;87.30;;
72466;Laerm;60471;52.150;4.508;2023-12-20T10:55:26;68.94;51.27;86.85;;
72466;Laerm;60471;52.150;4.508;2023-12-20T10:58:01;63.61;54.32;72.11;;
72466;Laerm;60471;52.150;4.508;2023-12-20T11:00:29;62.91;52.17;72.71;;
72466;Laerm;60471;52.150;4.508;2023-12-20T11:03:01;69.13;52.67;89.89;;
72466;Laerm;60471;52.150;4.508;2023-12-20T11:06:02;69.18;54.50;89.55;;
72466;Laerm;60471;52.150;4.508;2023-12-20T11:08:47;69.40;52.22;88.99;;
72466;Laerm;60471;52.150;4.508;2023-12-20T11:11:47;69.70;54.40;89.00;;
72466;Laerm;60471;52.150;4.508;2023-12-20T11:14:52;69.23;53.04;90.53;;
72466;Laerm;60471;52.150;4.508;2023-12-20T11:17:20;70.47;53.63;89.77;;
72466;Laerm;60471;52.150;4.508;2023-12-20T11:22:32;70.05;52.23;90.42;;
72466;Laerm;60471;52.150;4.508;2023-12-20T11:25:08;69.66;51.57;88.87;;
72466;Laerm;60471;52.150;4.508;2023-12-20T11:28:11;69.97;52.14;90.48;;
72466;Laerm;60471;52.150;4.508;2023-12-20T11:30:58;69.30;51.12;90.38;;
72466;Laerm;60471;52.150;4.508;2023-12-20T11:33:36;70.11;52.07;90.48;;
72466;Laerm;60471;52.150;4.508;2023-12-20T11:36:02;69.93;51.56;89.14;;
72466;Laerm;60471;52.150;4.508;2023-12-20T11:38:38;69.84;52.15;89.75;;
72466;Laerm;60471;52.150;4.508;2023-12-20T11:41:07;70.61;54.78;89.68;;
72466;Laerm;60471;52.150;4.508;2023-12-20T11:43:39;70.34;52.33;89.12;;
72466;Laerm;60471;52.150;4.508;2023-12-20T11:46:07;70.57;53.43;90.59;;
72466;Laerm;60471;52.150;4.508;2023-12-20T11:48:39;70.45;50.54;89.01;;
72466;Laerm;60471;52.150;4.508;2023-12-20T11:51:11;70.35;51.11;88.83;;
72466;Laerm;60471;52.150;4.508;2023-12-20T11:53:41;71.00;53.41;90.12;;
72466;Laerm;60471;52.150;4.508;2023-12-20T11:56:09;70.68;52.12;90.14;;
72466;Laerm;60471;52.150;4.508;2023-12-20T11:58:36;70.35;52.22;89.34;;
72466;Laerm;60471;52.150;4.508;2023-12-20T12:01:02;70.65;53.13;89.30;;
72466;Laerm;60471;52.150;4.508;2023-12-20T12:03:30;70.27;51.60;90.02;;
72466;Laerm;60471;52.150;4.508;2023-12-20T12:05:57;70.77;50.57;89.87;;
72466;Laerm;60471;52.150;4.508;2023-12-20T12:08:24;70.32;52.68;89.35;;
72466;Laerm;60471;52.150;4.508;2023-12-20T12:10:50;70.77;51.05;90.01;;
72466;Laerm;60471;52.150;4.508;2023-12-20T12:13:17;70.46;51.15;89.38;;
72466;Laerm;60471;52.150;4.508;2023-12-20T12:15:43;71.00;51.85;89.80;;
72466;Laerm;60471;52.150;4.508;2023-12-20T12:18:10;70.34;53.22;90.52;;
72466;Laerm;60471;52.150;4.508;2023-12-20T12:20:37;70.52;52.87;89.66;;
72466;Laerm;60471;52.150;4.508;2023-12-20T12:23:05;71.71;54.48;90.04;;
72466;Laerm;60471;52.150;4.508;2023-12-20T12:25:35;70.80;52.86;88.97;;
72466;Laerm;60471;52.150;4.508;2023-12-20T12:28:01;70.43;51.19;89.37;;
72466;Laerm;60471;52.150;4.508;2023-12-20T12:30:28;70.43;51.94;89.41;;
72466;Laerm;60471;52.150;4.508;2023-12-20T12:32:56;70.33;53.08;89.20;;
72466;Laerm;60471;52.150;4.508;2023-12-20T12:35:22;70.50;52.03;90.84;;
72466;Laerm;60471;52.150;4.508;2023-12-20T12:37:49;70.58;51.67;89.20;;
72466;Laerm;60471;52.150;4.508;2023-12-20T12:40:16;70.21;52.00;89.87;;
72466;Laerm;60471;52.150;4.508;2023-12-20T12:42:45;70.38;52.30;89.28;;
72466;Laerm;60471;52.150;4.508;2023-12-20T12:45:11;70.50;52.32;90.42;;
72466;Laerm;60471;52.150;4.508;2023-12-20T12:47:38;70.39;53.02;89.15;;
72466;Laerm;60471;52.150;4.508;2023-12-20T12:50:05;70.16;52.35;89.25;;
72466;Laerm;60471;52.150;4.508;2023-12-20T12:52:31;70.19;51.68;90.07;;
72466;Laerm;60471;52.150;4.508;2023-12-20T12:54:58;70.04;51.13;89.20;;
72466;Laerm;60471;52.150;4.508;2023-12-20T12:57:24;70.22;51.34;89.18;;
72466;Laerm;60471;52.150;4.508;2023-12-20T12:59:50;70.03;50.81;90.21;;
72466;Laerm;60471;52.150;4.508;2023-12-20T13:02:16;70.23;52.55;89.30;;
72466;Laerm;60471;52.150;4.508;2023-12-20T13:04:43;70.19;52.13;89.24;;
72466;Laerm;60471;52.150;4.508;2023-12-20T13:07:10;70.39;53.27;89.17;;
72466;Laerm;60471;52.150;4.508;2023-12-20T13:09:39;70.41;54.38;89.01;;
72466;Laerm;60471;52.150;4.508;2023-12-20T13:12:06;70.31;52.47;89.60;;
72466;Laerm;60471;52.150;4.508;2023-12-20T13:14:36;70.27;54.36;90.02;;
72466;Laerm;60471;52.150;4.508;2023-12-20T13:17:04;70.34;51.24;89.94;;
72466;Laerm;60471;52.150;4.508;2023-12-20T13:19:31;70.23;53.46;88.69;;
72466;Laerm;60471;52.150;4.508;2023-12-20T13:21:58;70.19;51.38;88.67;;
72466;Laerm;60471;52.150;4.508;2023-12-20T13:24:24;70.11;52.77;88.70;;
72466;Laerm;60471;52.150;4.508;2023-12-20T13:26:50;70.22;53.53;88.33;;
72466;Laerm;60471;52.150;4.508;2023-12-20T13:29:17;70.79;51.95;89.81;;
72466;Laerm;60471;52.150;4.508;2023-12-20T13:31:43;70.09;51.12;89.71;;
72466;Laerm;60471;52.150;4.508;2023-12-20T13:34:09;70.11;49.47;89.27;;
72466;Laerm;60471;52.150;4.508;2023-12-20T13:36:35;69.95;51.18;90.17;;
72466;Laerm;60471;52.150;4.508;2023-12-20T13:39:03;69.93;52.06;89.70;;
72466;Laerm;60471;52.150;4.508;2023-12-20T13:41:31;69.87;51.83;89.51;;
72466;Laerm;60471;52.150;4.508;2023-12-20T13:43:57;70.10;52.06;89.13;;
72466;Laerm;60471;52.150;4.508;2023-12-20T13:46:24;69.63;51.68;89.46;;
72466;Laerm;60471;52.150;4.508;2023-12-20T13:48:50;69.63;51.46;89.31;;